createdAt,value
2018-06-22T00:00:15.499Z,10.14
2018-06-22T00:01:24.632Z,10.15
2018-06-22T00:02:33.487Z,10.08
2018-06-22T00:03:42.343Z,10.09
2018-06-22T00:04:51.527Z,10.2
2018-06-22T00:06:00.659Z,10.09
2018-06-22T00:07:09.513Z,10.11
2018-06-22T00:08:18.371Z,10.11
2018-06-22T00:09:27.229Z,10.08
2018-06-22T00:10:36.435Z,10.08
2018-06-22T00:11:45.291Z,10.29
2018-06-22T00:12:54.145Z,10.41
2018-06-22T00:14:03.003Z,10.25
2018-06-22T00:15:11.859Z,10.32
2018-06-22T00:16:20.716Z,10.2
2018-06-22T00:17:29.572Z,10.23
2018-06-22T00:18:38.426Z,10.07
2018-06-22T00:19:47.561Z,10.23
2018-06-22T00:20:56.418Z,10.18
2018-06-22T00:22:05.275Z,10.23
2018-06-22T00:23:14.134Z,10.18
2018-06-22T00:24:22.988Z,10.17
2018-06-22T00:25:31.844Z,10.17
2018-06-22T00:26:40.982Z,10.11
2018-06-22T00:27:49.853Z,10.2
2018-06-22T00:28:58.695Z,10.2
2018-06-22T00:30:07.833Z,10.18
2018-06-22T00:31:16.691Z,10.2
2018-06-22T00:32:25.551Z,10.33
2018-06-22T00:33:34.409Z,10.26
2018-06-22T00:34:43.550Z,10.45
2018-06-22T00:35:52.406Z,10.26
2018-06-22T00:37:01.263Z,10.26
2018-06-22T00:38:10.122Z,10.18
2018-06-22T00:39:19.133Z,10.18
2018-06-22T00:40:27.986Z,10.17
2018-06-22T00:41:36.844Z,10.12
2018-06-22T00:42:45.699Z,10.29
2018-06-22T00:43:54.557Z,10.15
2018-06-22T00:45:03.841Z,10.36
2018-06-22T00:46:12.980Z,10.27
2018-06-22T00:47:21.835Z,10.18
2018-06-22T00:48:30.691Z,10.17
2018-06-22T00:49:39.545Z,10.18
2018-06-22T00:50:48.452Z,10.17
2018-06-22T00:51:57.595Z,10.2
2018-06-22T00:53:06.450Z,10.32
2018-06-22T00:54:15.312Z,10.18
2018-06-22T00:55:24.440Z,10.17
2018-06-22T00:56:33.348Z,10.41
2018-06-22T00:57:42.207Z,10.3
2018-06-22T00:58:51.060Z,10.22
2018-06-22T00:59:59.916Z,10.26
2018-06-22T01:01:09.049Z,10.17
2018-06-22T01:02:18.258Z,10.29
2018-06-22T01:03:27.118Z,10.18
2018-06-22T01:04:35.973Z,10.26
2018-06-22T01:05:44.831Z,10.22
2018-06-22T01:06:53.966Z,10.22
2018-06-22T01:08:02.924Z,10.2
2018-06-22T01:09:11.779Z,10.25
2018-06-22T01:10:20.646Z,10.18
2018-06-22T01:11:29.509Z,10.15
2018-06-22T01:12:38.361Z,10.07
2018-06-22T01:13:47.219Z,10.09
2018-06-22T01:14:56.074Z,9.97
2018-06-22T01:16:05.486Z,9.97
2018-06-22T01:17:14.616Z,10.04
2018-06-22T01:18:23.472Z,10.04
2018-06-22T01:19:32.329Z,10.02
2018-06-22T01:20:41.185Z,10.14
2018-06-22T01:21:50.042Z,10.07
2018-06-22T01:22:58.901Z,10.07
2018-06-22T01:24:07.756Z,10.04
2018-06-22T01:25:16.713Z,10.04
2018-06-22T01:26:25.570Z,10.01
2018-06-22T01:27:34.428Z,10.09
2018-06-22T01:28:43.563Z,10.14
2018-06-22T01:29:52.419Z,10.17
2018-06-22T01:31:01.326Z,10.18
2018-06-22T01:32:10.467Z,10.05
2018-06-22T01:33:19.598Z,10.14
2018-06-22T01:34:28.732Z,10.18
2018-06-22T01:35:37.588Z,10.2
2018-06-22T01:36:46.795Z,10.11
2018-06-22T01:37:56.202Z,10.09
2018-06-22T01:39:05.059Z,10.17
2018-06-22T01:40:14.192Z,10.18
2018-06-22T01:41:23.051Z,10.36
2018-06-22T01:42:32.156Z,10.17
2018-06-22T01:43:41.287Z,10.11
2018-06-22T01:44:50.143Z,10.17
2018-06-22T01:45:59.002Z,10.12
2018-06-22T01:47:08.411Z,10.2
2018-06-22T01:48:17.269Z,10.11
2018-06-22T01:49:26.126Z,10.09
2018-06-22T01:50:34.982Z,10.11
2018-06-22T01:51:43.837Z,10.09
2018-06-22T01:52:52.691Z,10.15
2018-06-22T01:54:01.599Z,10.15
2018-06-22T01:55:10.729Z,10.25
2018-06-22T01:56:19.590Z,10.18
2018-06-22T01:57:28.444Z,10.2
2018-06-22T01:58:37.301Z,10.4
2018-06-22T01:59:46.258Z,10.32
2018-06-22T02:00:55.114Z,10.26
2018-06-22T02:02:03.977Z,10.18
2018-06-22T02:03:13.109Z,10.32
2018-06-22T02:04:21.962Z,10.23
2018-06-22T02:05:30.869Z,10.2
2018-06-22T02:06:39.724Z,10.18
2018-06-22T02:07:49.138Z,10.2
2018-06-22T02:08:57.989Z,10.17
2018-06-22T02:10:06.844Z,10.22
2018-06-22T02:11:15.797Z,10.23
2018-06-22T02:12:24.933Z,10.32
2018-06-22T02:13:33.790Z,10.2
2018-06-22T02:14:43.486Z,10.14
2018-06-22T02:15:52.343Z,10.09
2018-06-22T02:17:01.624Z,10.09
2018-06-22T02:18:10.488Z,10.14
2018-06-22T02:19:19.723Z,10.29
2018-06-22T02:20:28.857Z,10.32
2018-06-22T02:21:37.717Z,10.08
2018-06-22T02:22:46.826Z,10.04
2018-06-22T02:23:55.964Z,10.01
2018-06-22T02:25:04.819Z,10.11
2018-06-22T02:26:13.674Z,10.05
2018-06-22T02:27:22.535Z,9.99
2018-06-22T02:28:31.916Z,9.96
2018-06-22T02:29:40.774Z,10.09
2018-06-22T02:30:49.674Z,10.01
2018-06-22T02:31:58.494Z,10.11
2018-06-22T02:33:08.181Z,10.07
2018-06-22T02:34:17.668Z,10.02
2018-06-22T02:35:26.522Z,10.11
2018-06-22T02:36:35.379Z,10.14
2018-06-22T02:37:45.070Z,10.11
2018-06-22T02:38:54.208Z,10.04
2018-06-22T02:40:03.453Z,10.12
2018-06-22T02:41:12.590Z,10.11
2018-06-22T02:42:21.729Z,10.07
2018-06-22T02:43:30.584Z,10.08
2018-06-22T02:44:39.716Z,10.12
2018-06-22T02:45:48.828Z,10.23
2018-06-22T02:46:57.982Z,10.08
2018-06-22T02:48:07.087Z,10.12
2018-06-22T02:49:15.943Z,10.09
2018-06-22T02:50:24.801Z,10.04
2018-06-22T02:51:34.317Z,10.09
2018-06-22T02:52:43.170Z,10.04
2018-06-22T02:53:52.303Z,10.02
2018-06-22T02:55:01.440Z,9.99
2018-06-22T02:56:10.294Z,9.94
2018-06-22T02:57:19.582Z,10.15
2018-06-22T02:58:28.997Z,10.09
2018-06-22T02:59:38.689Z,10.18
2018-06-22T03:00:47.919Z,10.09
2018-06-22T03:01:57.066Z,9.99
2018-06-22T03:03:06.376Z,10.2
2018-06-22T03:04:15.513Z,9.99
2018-06-22T03:05:24.644Z,9.99
2018-06-22T03:06:34.079Z,9.99
2018-06-22T03:07:42.940Z,10.02
2018-06-22T03:08:52.599Z,9.99
2018-06-22T03:10:01.733Z,9.99
2018-06-22T03:11:10.875Z,10.38
2018-06-22T03:12:20.014Z,10.15
2018-06-22T03:13:28.869Z,10.22
2018-06-22T03:14:38.657Z,10.27
2018-06-22T03:15:47.797Z,10.14
2018-06-22T03:16:56.943Z,10.14
2018-06-22T03:18:06.634Z,10.08
2018-06-22T03:19:15.499Z,10.12
2018-06-22T03:20:24.680Z,10.15
2018-06-22T03:21:34.094Z,10.12
2018-06-22T03:22:42.956Z,10.18
2018-06-22T03:23:51.811Z,10.14
2018-06-22T03:25:00.667Z,10.2
2018-06-22T03:26:09.899Z,10.34
2018-06-22T03:27:18.756Z,10.25
2018-06-22T03:28:27.611Z,10.15
2018-06-22T03:29:36.469Z,10.18
2018-06-22T03:30:45.889Z,10.25
2018-06-22T03:31:55.097Z,10.3
2018-06-22T03:33:03.877Z,10.32
2018-06-22T03:34:12.740Z,10.14
2018-06-22T03:35:21.598Z,10.17
2018-06-22T03:36:30.734Z,10.17
2018-06-22T03:37:39.740Z,10.22
2018-06-22T03:38:48.596Z,10.33
2018-06-22T03:39:57.452Z,10.15
2018-06-22T03:41:06.312Z,10.2
2018-06-22T03:42:15.445Z,10.29
2018-06-22T03:43:24.302Z,10.33
2018-06-22T03:44:33.157Z,10.18
2018-06-22T03:45:42.011Z,10.17
2018-06-22T03:46:51.148Z,10.12
2018-06-22T03:48:00.012Z,10.12
2018-06-22T03:49:09.151Z,10.12
2018-06-22T03:50:18.282Z,10.11
2018-06-22T03:51:27.414Z,10.12
2018-06-22T03:52:36.270Z,10.14
2018-06-22T03:53:45.125Z,10.17
2018-06-22T03:54:54.603Z,10.07
2018-06-22T03:56:03.459Z,10.05
2018-06-22T03:57:12.312Z,10.15
2018-06-22T03:58:21.169Z,10.23
2018-06-22T03:59:30.024Z,10.18
2018-06-22T04:00:39.267Z,10.11
2018-06-22T04:01:48.403Z,10.18
2018-06-22T04:02:57.260Z,10.15
2018-06-22T04:04:06.396Z,10.25
2018-06-22T04:05:15.529Z,10.25
2018-06-22T04:06:24.715Z,10.17
2018-06-22T04:07:34.131Z,10.14
2018-06-22T04:08:42.986Z,10.2
2018-06-22T04:09:52.134Z,10.15
2018-06-22T04:11:00.987Z,10.2
2018-06-22T04:12:09.891Z,10.23
2018-06-22T04:13:18.747Z,10.23
2018-06-22T04:14:27.890Z,10.2
2018-06-22T04:15:36.745Z,10.26
2018-06-22T04:16:45.601Z,10.23
2018-06-22T04:17:55.086Z,10.26
2018-06-22T04:19:03.942Z,10.3
2018-06-22T04:20:12.797Z,10.44
2018-06-22T04:21:21.651Z,10.45
2018-06-22T04:22:30.506Z,10.22
2018-06-22T04:23:39.966Z,10.25
2018-06-22T04:24:48.824Z,10.33
2018-06-22T04:25:57.679Z,10.14
2018-06-22T04:27:06.536Z,10.29
2018-06-22T04:28:15.391Z,10.33
2018-06-22T04:29:24.245Z,10.25
2018-06-22T04:30:33.103Z,10.42
2018-06-22T04:31:42.238Z,10.2
2018-06-22T04:32:51.095Z,10.32
2018-06-22T04:34:00.228Z,10.17
2018-06-22T04:35:09.131Z,10.29
2018-06-22T04:36:18.262Z,10.23
2018-06-22T04:37:27.119Z,10.36
2018-06-22T04:38:36.048Z,10.2
2018-06-22T04:39:45.178Z,10.26
2018-06-22T04:40:54.085Z,10.26
2018-06-22T04:42:03.773Z,10.33
2018-06-22T04:43:12.636Z,10.3
2018-06-22T04:44:21.538Z,10.51
2018-06-22T04:45:30.679Z,10.33
2018-06-22T04:46:39.603Z,10.25
2018-06-22T04:47:49.651Z,10.36
2018-06-22T04:48:59.068Z,10.25
2018-06-22T04:50:07.925Z,10.18
2018-06-22T04:51:17.065Z,10.33
2018-06-22T04:52:26.898Z,10.25
2018-06-22T04:53:36.033Z,10.4
2018-06-22T04:54:44.938Z,10.36
2018-06-22T04:55:53.743Z,10.47
2018-06-22T04:57:02.600Z,10.25
2018-06-22T04:58:11.605Z,10.22
2018-06-22T04:59:20.461Z,10.2
2018-06-22T05:00:29.320Z,10.25
2018-06-22T05:01:38.455Z,10.25
2018-06-22T05:02:47.592Z,10.18
2018-06-22T05:03:56.595Z,10.38
2018-06-22T05:05:05.728Z,10.15
2018-06-22T05:06:14.582Z,10.25
2018-06-22T05:07:23.438Z,10.14
2018-06-22T05:08:32.297Z,10.17
2018-06-22T05:09:41.412Z,10.22
2018-06-22T05:10:50.592Z,10.09
2018-06-22T05:11:59.794Z,10.07
2018-06-22T05:13:08.929Z,10.36
2018-06-22T05:14:17.783Z,10.09
2018-06-22T05:15:26.916Z,10.17
2018-06-22T05:16:36.327Z,10.18
2018-06-22T05:17:45.183Z,10.15
2018-06-22T05:18:54.038Z,10.17
2018-06-22T05:20:02.894Z,10.23
2018-06-22T05:21:11.855Z,10.08
2018-06-22T05:22:20.985Z,10.04
2018-06-22T05:23:29.841Z,9.99
2018-06-22T05:24:38.699Z,9.94
2018-06-22T05:25:47.901Z,10.04
2018-06-22T05:26:56.856Z,10.09
2018-06-22T05:28:05.714Z,10.05
2018-06-22T05:29:14.845Z,10.04
2018-06-22T05:30:24.179Z,9.93
2018-06-22T05:31:32.911Z,10.12
2018-06-22T05:32:42.046Z,10.17
2018-06-22T05:33:50.901Z,10.17
2018-06-22T05:34:59.758Z,10.36
2018-06-22T05:36:08.891Z,10.3
2018-06-22T05:37:18.029Z,10.15
2018-06-22T05:38:27.163Z,10.09
2018-06-22T05:39:36.015Z,10.2
2018-06-22T05:40:44.871Z,10.18
2018-06-22T05:41:54.008Z,10.08
2018-06-22T05:43:02.863Z,10.11
2018-06-22T05:44:11.869Z,10.25
2018-06-22T05:45:20.726Z,10.07
2018-06-22T05:46:29.580Z,10.38
2018-06-22T05:47:38.724Z,10.18
2018-06-22T05:48:47.581Z,10.15
2018-06-22T05:49:56.539Z,10.17
2018-06-22T05:51:06.072Z,10.25
2018-06-22T05:52:15.222Z,10.3
2018-06-22T05:53:24.352Z,10.2
2018-06-22T05:54:33.484Z,10.23
2018-06-22T05:55:42.789Z,10.23
2018-06-22T05:56:51.670Z,10.3
2018-06-22T05:58:01.083Z,10.23
2018-06-22T05:59:10.161Z,10.32
2018-06-22T06:00:19.410Z,10.3
2018-06-22T06:01:28.551Z,10.48
2018-06-22T06:02:37.776Z,10.41
2018-06-22T06:03:46.961Z,10.47
2018-06-22T06:04:56.664Z,10.66
2018-06-22T06:06:05.562Z,10.52
2018-06-22T06:07:14.747Z,10.55
2018-06-22T06:08:23.881Z,10.66
2018-06-22T06:09:33.015Z,10.81
2018-06-22T06:10:41.871Z,10.67
2018-06-22T06:11:50.734Z,10.59
2018-06-22T06:13:00.272Z,10.59
2018-06-22T06:14:09.402Z,10.81
2018-06-22T06:15:18.257Z,10.68
2018-06-22T06:16:27.118Z,10.76
2018-06-22T06:17:35.974Z,10.71
2018-06-22T06:18:45.182Z,10.73
2018-06-22T06:19:54.042Z,10.71
2018-06-22T06:21:02.899Z,10.63
2018-06-22T06:22:12.034Z,10.66
2018-06-22T06:23:21.169Z,10.6
2018-06-22T06:24:30.229Z,10.76
2018-06-22T06:25:39.086Z,10.71
2018-06-22T06:26:47.948Z,10.67
2018-06-22T06:27:56.803Z,10.67
2018-06-22T06:29:05.935Z,10.71
2018-06-22T06:30:15.452Z,10.76
2018-06-22T06:31:24.309Z,10.68
2018-06-22T06:32:33.167Z,10.74
2018-06-22T06:33:42.027Z,10.7
2018-06-22T06:34:51.165Z,10.78
2018-06-22T06:36:00.349Z,10.86
2018-06-22T06:37:09.211Z,10.91
2018-06-22T06:38:18.343Z,10.81
2018-06-22T06:39:27.197Z,10.67
2018-06-22T06:40:36.057Z,10.78
2018-06-22T06:41:45.879Z,10.78
2018-06-22T06:42:55.306Z,10.71
2018-06-22T06:44:04.164Z,10.63
2018-06-22T06:45:13.024Z,10.79
2018-06-22T06:46:21.883Z,10.79
2018-06-22T06:47:30.890Z,10.71
2018-06-22T06:48:40.028Z,10.76
2018-06-22T06:49:48.889Z,10.74
2018-06-22T06:50:57.742Z,10.78
2018-06-22T06:52:06.877Z,10.76
2018-06-22T06:53:15.987Z,10.76
2018-06-22T06:54:24.841Z,10.84
2018-06-22T06:55:33.699Z,10.86
2018-06-22T06:56:42.567Z,10.84
2018-06-22T06:57:52.035Z,10.84
2018-06-22T06:59:01.550Z,10.84
2018-06-22T07:00:10.406Z,10.81
2018-06-22T07:01:19.268Z,10.84
2018-06-22T07:02:28.176Z,10.86
2018-06-22T07:03:37.677Z,11.09
2018-06-22T07:04:46.784Z,11.09
2018-06-22T07:05:55.641Z,11.03
2018-06-22T07:07:04.502Z,10.97
2018-06-22T07:08:13.358Z,11.03
2018-06-22T07:09:22.774Z,11.04
2018-06-22T07:10:31.983Z,11.17
2018-06-22T07:11:40.841Z,11.18
2018-06-22T07:12:49.698Z,11.11
2018-06-22T07:13:58.833Z,11.07
2018-06-22T07:15:07.690Z,11.25
2018-06-22T07:16:16.648Z,11.28
2018-06-22T07:17:25.507Z,11.24
2018-06-22T07:18:34.364Z,11.27
2018-06-22T07:19:43.500Z,11.1
2018-06-22T07:20:52.359Z,11.18
2018-06-22T07:22:01.315Z,11.28
2018-06-22T07:23:10.173Z,11.29
2018-06-22T07:24:19.031Z,11.58
2018-06-22T07:25:27.888Z,11.37
2018-06-22T07:26:36.748Z,11.29
2018-06-22T07:27:45.758Z,11.27
2018-06-22T07:28:54.617Z,11.27
2018-06-22T07:30:03.477Z,11.15
2018-06-22T07:31:12.610Z,11.22
2018-06-22T07:32:21.470Z,11.11
2018-06-22T07:33:30.477Z,11.14
2018-06-22T07:34:39.335Z,11.21
2018-06-22T07:35:48.194Z,11.24
2018-06-22T07:36:57.052Z,11.22
2018-06-22T07:38:06.183Z,11.25
2018-06-22T07:39:15.092Z,11.42
2018-06-22T07:40:23.949Z,11.21
2018-06-22T07:41:32.807Z,11.24
2018-06-22T07:42:41.664Z,11.33
2018-06-22T07:43:50.847Z,11.32
2018-06-22T07:44:59.659Z,11.36
2018-06-22T07:46:08.517Z,11.57
2018-06-22T07:47:17.655Z,11.47
2018-06-22T07:48:26.515Z,11.54
2018-06-22T07:49:35.649Z,11.69
2018-06-22T07:50:45.163Z,11.7
2018-06-22T07:51:54.020Z,11.65
2018-06-22T07:53:02.879Z,11.62
2018-06-22T07:54:12.015Z,11.65
2018-06-22T07:55:20.873Z,11.67
2018-06-22T07:56:29.881Z,11.78
2018-06-22T07:57:38.741Z,11.79
2018-06-22T07:58:47.884Z,11.8
2018-06-22T07:59:56.743Z,11.99
2018-06-22T08:01:05.600Z,12.05
2018-06-22T08:02:14.786Z,12.14
2018-06-22T08:03:23.644Z,12.31
2018-06-22T08:04:32.507Z,12.42
2018-06-22T08:05:41.365Z,12.39
2018-06-22T08:06:50.225Z,12.37
2018-06-22T08:07:59.185Z,12.54
2018-06-22T08:09:08.327Z,12.53
2018-06-22T08:10:17.469Z,12.57
2018-06-22T08:11:26.331Z,12.71
2018-06-22T08:12:35.192Z,12.54
2018-06-22T08:13:44.100Z,12.64
2018-06-22T08:14:52.964Z,12.7
2018-06-22T08:16:02.098Z,12.77
2018-06-22T08:17:10.958Z,12.83
2018-06-22T08:18:19.817Z,12.68
2018-06-22T08:19:28.729Z,12.79
2018-06-22T08:20:37.587Z,12.95
2018-06-22T08:21:46.445Z,13.04
2018-06-22T08:22:55.581Z,13.05
2018-06-22T08:24:04.726Z,12.95
2018-06-22T08:25:13.938Z,12.97
2018-06-22T08:26:22.796Z,13.1
2018-06-22T08:27:31.930Z,13.36
2018-06-22T08:28:41.070Z,13.32
2018-06-22T08:29:49.935Z,13.51
2018-06-22T08:30:58.898Z,13.26
2018-06-22T08:32:08.313Z,13.19
2018-06-22T08:33:17.449Z,13.14
2018-06-22T08:34:26.410Z,13.12
2018-06-22T08:35:35.277Z,13.32
2018-06-22T08:36:44.282Z,12.97
2018-06-22T08:37:53.143Z,12.95
2018-06-22T08:39:01.999Z,12.92
2018-06-22T08:40:10.861Z,12.9
2018-06-22T08:41:19.725Z,12.93
2018-06-22T08:42:28.681Z,12.92
2018-06-22T08:43:37.818Z,13
2018-06-22T08:44:46.678Z,13.22
2018-06-22T08:45:55.541Z,13.12
2018-06-22T08:47:04.399Z,13.26
2018-06-22T08:48:13.409Z,13.26
2018-06-22T08:49:23.264Z,13.3
2018-06-22T08:50:32.399Z,13.36
2018-06-22T08:51:41.262Z,13.54
2018-06-22T08:52:50.114Z,13.42
2018-06-22T08:53:59.076Z,13.49
2018-06-22T08:55:07.937Z,13.39
2018-06-22T08:56:16.794Z,13.54
2018-06-22T08:57:26.211Z,13.67
2018-06-22T08:58:35.349Z,13.62
2018-06-22T08:59:44.846Z,13.7
2018-06-22T09:00:53.721Z,13.77
2018-06-22T09:02:02.567Z,13.84
2018-06-22T09:03:11.433Z,13.81
2018-06-22T09:04:20.568Z,13.73
2018-06-22T09:05:29.529Z,13.84
2018-06-22T09:06:38.666Z,13.77
2018-06-22T09:07:47.528Z,13.73
2018-06-22T09:08:56.392Z,13.77
2018-06-22T09:10:05.252Z,13.75
2018-06-22T09:11:14.169Z,13.78
2018-06-22T09:12:23.029Z,13.81
2018-06-22T09:13:32.173Z,13.85
2018-06-22T09:14:41.594Z,13.87
2018-06-22T09:15:50.453Z,13.87
2018-06-22T09:16:59.400Z,13.97
2018-06-22T09:18:08.222Z,13.92
2018-06-22T09:19:17.085Z,13.97
2018-06-22T09:20:25.952Z,13.89
2018-06-22T09:21:34.807Z,13.92
2018-06-22T09:22:43.774Z,13.84
2018-06-22T09:23:52.922Z,13.82
2018-06-22T09:25:02.059Z,13.81
2018-06-22T09:26:10.921Z,13.88
2018-06-22T09:27:19.784Z,13.78
2018-06-22T09:28:28.850Z,13.71
2018-06-22T09:29:37.997Z,13.79
2018-06-22T09:30:46.863Z,13.99
2018-06-22T09:31:56.001Z,13.78
2018-06-22T09:33:04.873Z,13.69
2018-06-22T09:34:14.004Z,13.79
2018-06-22T09:35:22.867Z,13.73
2018-06-22T09:36:31.730Z,13.77
2018-06-22T09:37:40.591Z,13.78
2018-06-22T09:38:49.460Z,13.79
2018-06-22T09:39:58.321Z,13.77
2018-06-22T09:41:07.182Z,13.81
2018-06-22T09:42:16.321Z,13.82
2018-06-22T09:43:25.458Z,13.84
2018-06-22T09:44:34.604Z,13.97
2018-06-22T09:45:43.470Z,13.87
2018-06-22T09:46:52.894Z,13.85
2018-06-22T09:48:01.759Z,13.92
2018-06-22T09:49:10.668Z,13.97
2018-06-22T09:50:19.530Z,14.04
2018-06-22T09:51:28.391Z,14.07
2018-06-22T09:52:37.250Z,14.15
2018-06-22T09:53:46.119Z,14.21
2018-06-22T09:54:55.257Z,14.51
2018-06-22T09:56:04.651Z,14.6
2018-06-22T09:57:13.514Z,14.6
2018-06-22T09:58:22.656Z,14.62
2018-06-22T09:59:31.527Z,14.57
2018-06-22T10:00:40.393Z,14.55
2018-06-22T10:01:49.253Z,14.52
2018-06-22T10:02:58.113Z,14.58
2018-06-22T10:04:07.005Z,14.54
2018-06-22T10:05:16.987Z,14.73
2018-06-22T10:06:26.720Z,14.92
2018-06-22T10:07:35.821Z,14.91
2018-06-22T10:08:44.887Z,14.84
2018-06-22T10:09:53.870Z,14.83
2018-06-22T10:11:02.968Z,14.86
2018-06-22T10:12:12.295Z,14.95
2018-06-22T10:13:22.184Z,14.86
2018-06-22T10:14:31.441Z,14.89
2018-06-22T10:15:40.487Z,14.96
2018-06-22T10:16:49.621Z,14.96
2018-06-22T10:17:58.588Z,14.98
2018-06-22T10:19:07.646Z,15.11
2018-06-22T10:20:17.126Z,15.2
2018-06-22T10:21:26.610Z,15.23
2018-06-22T10:22:35.939Z,15.28
2018-06-22T10:23:44.825Z,15.28
2018-06-22T10:24:54.333Z,15.34
2018-06-22T10:26:04.009Z,15.38
2018-06-22T10:27:13.190Z,15.31
2018-06-22T10:28:22.914Z,15.31
2018-06-22T10:29:32.116Z,15.28
2018-06-22T10:30:41.252Z,15.36
2018-06-22T10:31:50.114Z,15.32
2018-06-22T10:32:58.977Z,15.41
2018-06-22T10:34:08.041Z,15.38
2018-06-22T10:35:16.960Z,15.53
2018-06-22T10:36:25.862Z,15.57
2018-06-22T10:37:34.726Z,15.56
2018-06-22T10:38:43.866Z,15.56
2018-06-22T10:39:53.689Z,15.6
2018-06-22T10:41:02.821Z,15.74
2018-06-22T10:42:11.788Z,15.67
2018-06-22T10:43:20.826Z,15.68
2018-06-22T10:44:30.247Z,15.71
2018-06-22T10:45:39.501Z,15.69
2018-06-22T10:46:48.365Z,15.68
2018-06-22T10:47:57.284Z,15.78
2018-06-22T10:49:06.312Z,15.82
2018-06-22T10:50:15.536Z,15.8
2018-06-22T10:51:24.786Z,15.78
2018-06-22T10:52:34.415Z,15.97
2018-06-22T10:53:43.634Z,15.94
2018-06-22T10:54:53.138Z,15.92
2018-06-22T10:56:02.014Z,15.94
2018-06-22T10:57:11.213Z,15.94
2018-06-22T10:58:20.075Z,15.96
2018-06-22T10:59:28.938Z,15.92
2018-06-22T11:00:38.424Z,15.93
2018-06-22T11:01:47.569Z,16.17
2018-06-22T11:02:56.861Z,16.24
2018-06-22T11:04:06.287Z,16.3
2018-06-22T11:05:15.148Z,16.33
2018-06-22T11:06:24.011Z,16.42
2018-06-22T11:07:32.874Z,16.48
2018-06-22T11:08:42.213Z,16.49
2018-06-22T11:09:51.080Z,16.43
2018-06-22T11:11:00.221Z,16.5
2018-06-22T11:12:09.364Z,16.48
2018-06-22T11:13:18.226Z,16.42
2018-06-22T11:14:27.441Z,16.48
2018-06-22T11:15:36.577Z,16.56
2018-06-22T11:16:45.795Z,16.61
2018-06-22T11:17:55.687Z,16.73
2018-06-22T11:19:04.827Z,16.73
2018-06-22T11:20:14.144Z,16.75
2018-06-22T11:21:23.014Z,16.67
2018-06-22T11:22:31.873Z,16.68
2018-06-22T11:23:40.738Z,16.73
2018-06-22T11:24:49.640Z,16.73
2018-06-22T11:25:58.917Z,16.68
2018-06-22T11:27:07.782Z,16.7
2018-06-22T11:28:16.644Z,16.79
2018-06-22T11:29:25.781Z,16.71
2018-06-22T11:30:34.644Z,16.79
2018-06-22T11:31:43.892Z,16.75
2018-06-22T11:32:53.029Z,16.88
2018-06-22T11:34:02.167Z,16.83
2018-06-22T11:35:11.307Z,16.68
2018-06-22T11:36:21.052Z,16.79
2018-06-22T11:37:29.964Z,16.67
2018-06-22T11:38:38.824Z,16.75
2018-06-22T11:39:47.690Z,16.71
2018-06-22T11:40:56.553Z,16.68
2018-06-22T11:42:05.967Z,16.7
2018-06-22T11:43:15.258Z,16.71
2018-06-22T11:44:24.121Z,16.63
2018-06-22T11:45:32.983Z,16.71
2018-06-22T11:46:42.127Z,16.56
2018-06-22T11:47:50.993Z,16.61
2018-06-22T11:49:00.378Z,16.53
2018-06-22T11:50:09.516Z,16.6
2018-06-22T11:51:18.831Z,16.53
2018-06-22T11:52:27.698Z,16.67
2018-06-22T11:53:36.563Z,16.73
2018-06-22T11:54:45.531Z,16.7
2018-06-22T11:55:54.668Z,16.78
2018-06-22T11:57:03.531Z,16.78
2018-06-22T11:58:12.393Z,16.91
2018-06-22T11:59:21.259Z,16.83
2018-06-22T12:00:31.033Z,16.81
2018-06-22T12:01:39.902Z,16.68
2018-06-22T12:02:49.040Z,16.7
2018-06-22T12:03:58.182Z,16.68
2018-06-22T12:05:07.045Z,16.73
2018-06-22T12:06:16.062Z,16.83
2018-06-22T12:07:24.927Z,16.94
2018-06-22T12:08:33.791Z,16.94
2018-06-22T12:09:42.655Z,16.98
2018-06-22T12:10:51.524Z,16.97
2018-06-22T12:12:00.432Z,16.88
2018-06-22T12:13:09.580Z,16.94
2018-06-22T12:14:18.447Z,17.01
2018-06-22T12:15:27.588Z,17.04
2018-06-22T12:16:36.729Z,17.21
2018-06-22T12:17:45.743Z,17.12
2018-06-22T12:18:54.889Z,17.12
2018-06-22T12:20:03.754Z,17.15
2018-06-22T12:21:12.617Z,17.01
2018-06-22T12:22:21.760Z,17.12
2018-06-22T12:23:31.257Z,17
2018-06-22T12:24:40.402Z,16.94
2018-06-22T12:25:49.573Z,16.94
2018-06-22T12:26:58.717Z,17.03
2018-06-22T12:28:07.857Z,16.96
2018-06-22T12:29:17.154Z,16.96
2018-06-22T12:30:26.021Z,17.06
2018-06-22T12:31:34.887Z,17.15
2018-06-22T12:32:43.750Z,17.11
2018-06-22T12:33:52.894Z,17.08
2018-06-22T12:35:01.916Z,17.14
2018-06-22T12:36:11.060Z,17.18
2018-06-22T12:37:20.482Z,17.16
2018-06-22T12:38:29.622Z,17.21
2018-06-22T12:39:38.556Z,17.31
2018-06-22T12:40:47.894Z,17.46
2018-06-22T12:41:56.765Z,17.71
2018-06-22T12:43:05.644Z,17.75
2018-06-22T12:44:14.526Z,17.74
2018-06-22T12:45:23.678Z,17.75
2018-06-22T12:46:32.607Z,17.84
2018-06-22T12:47:41.484Z,18.12
2018-06-22T12:48:50.666Z,18.2
2018-06-22T12:49:59.900Z,18.23
2018-06-22T12:51:08.784Z,18.14
2018-06-22T12:52:18.010Z,18.12
2018-06-22T12:53:26.884Z,18.17
2018-06-22T12:54:35.763Z,18.07
2018-06-22T12:55:44.643Z,18
2018-06-22T12:56:53.521Z,17.87
2018-06-22T12:58:02.556Z,17.81
2018-06-22T12:59:12.002Z,17.78
2018-06-22T13:00:20.872Z,17.54
2018-06-22T13:01:29.738Z,17.59
2018-06-22T13:02:38.879Z,17.43
2018-06-22T13:03:47.796Z,17.36
2018-06-22T13:04:56.661Z,17.38
2018-06-22T13:06:05.528Z,17.43
2018-06-22T13:07:14.397Z,17.46
2018-06-22T13:08:23.554Z,17.4
2018-06-22T13:09:32.797Z,17.52
2018-06-22T13:10:42.020Z,17.54
2018-06-22T13:11:51.721Z,17.59
2018-06-22T13:13:00.590Z,17.59
2018-06-22T13:14:09.730Z,17.55
2018-06-22T13:15:18.646Z,17.56
2018-06-22T13:16:27.793Z,17.68
2018-06-22T13:17:37.141Z,17.77
2018-06-22T13:18:46.002Z,18.02
2018-06-22T13:19:54.872Z,18.11
2018-06-22T13:21:04.053Z,18.2
2018-06-22T13:22:12.956Z,18.26
2018-06-22T13:23:22.072Z,18.29
2018-06-22T13:24:31.658Z,18.35
2018-06-22T13:25:40.638Z,18.54
2018-06-22T13:26:49.509Z,18.6
2018-06-22T13:27:58.657Z,18.76
2018-06-22T13:29:07.804Z,18.63
2018-06-22T13:30:16.672Z,18.65
2018-06-22T13:31:25.542Z,18.73
2018-06-22T13:32:34.761Z,19
2018-06-22T13:33:43.631Z,19.1
2018-06-22T13:34:52.503Z,19.31
2018-06-22T13:36:01.379Z,19.41
2018-06-22T13:37:10.529Z,19.23
2018-06-22T13:38:19.773Z,19.13
2018-06-22T13:39:28.643Z,19.1
2018-06-22T13:40:37.792Z,19.22
2018-06-22T13:41:46.664Z,19.22
2018-06-22T13:42:56.101Z,19.4
2018-06-22T13:44:05.634Z,19.4
2018-06-22T13:45:14.501Z,19.39
2018-06-22T13:46:23.651Z,19.21
2018-06-22T13:47:32.524Z,19.23
2018-06-22T13:48:41.394Z,19.22
2018-06-22T13:49:50.419Z,18.99
2018-06-22T13:50:59.287Z,18.72
2018-06-22T13:52:08.472Z,18.84
2018-06-22T13:53:17.576Z,18.78
2018-06-22T13:54:26.443Z,18.85
2018-06-22T13:55:35.662Z,19.04
2018-06-22T13:56:44.593Z,19.16
2018-06-22T13:57:54.058Z,19.41
2018-06-22T13:59:03.222Z,19.63
2018-06-22T14:00:12.094Z,19.65
2018-06-22T14:01:21.290Z,19.66
2018-06-22T14:02:30.161Z,19.59
2018-06-22T14:03:39.032Z,19.55
2018-06-22T14:04:47.901Z,19.44
2018-06-22T14:05:56.771Z,19.26
2018-06-22T14:07:05.712Z,19.06
2018-06-22T14:08:14.857Z,18.95
2018-06-22T14:09:23.815Z,18.82
2018-06-22T14:10:33.099Z,19
2018-06-22T14:11:41.980Z,18.9
2018-06-22T14:12:50.896Z,19
2018-06-22T14:13:59.787Z,19.1
2018-06-22T14:15:08.667Z,18.99
2018-06-22T14:16:17.535Z,18.95
2018-06-22T14:17:26.401Z,19.08
2018-06-22T14:18:35.319Z,18.87
2018-06-22T14:19:44.465Z,18.88
2018-06-22T14:20:53.612Z,18.85
2018-06-22T14:22:02.479Z,19
2018-06-22T14:23:11.347Z,19.07
2018-06-22T14:24:20.597Z,18.94
2018-06-22T14:25:29.467Z,18.94
2018-06-22T14:26:38.610Z,18.84
2018-06-22T14:27:47.480Z,18.54
2018-06-22T14:28:56.347Z,18.52
2018-06-22T14:30:05.271Z,18.3
2018-06-22T14:31:14.133Z,18.15
2018-06-22T14:32:23.284Z,18.17
2018-06-22T14:33:32.149Z,18.23
2018-06-22T14:34:41.090Z,18.26
2018-06-22T14:35:50.563Z,18.18
2018-06-22T14:36:59.429Z,18.32
2018-06-22T14:38:08.295Z,18.62
2018-06-22T14:39:17.441Z,18.75
2018-06-22T14:40:26.308Z,18.69
2018-06-22T14:41:35.654Z,18.78
2018-06-22T14:42:44.521Z,19
2018-06-22T14:43:53.393Z,18.95
2018-06-22T14:45:02.546Z,18.9
2018-06-22T14:46:11.413Z,18.81
2018-06-22T14:47:20.331Z,18.67
2018-06-22T14:48:29.201Z,18.55
2018-06-22T14:49:38.073Z,18.44
2018-06-22T14:50:47.497Z,18.33
2018-06-22T14:51:56.370Z,18.15
2018-06-22T14:53:05.382Z,18.14